Time;durP1;ratioP1;P1;durP2;ratioP2;P2;SDS_P1;SDS_P2;PMS_P1;PMS_P2;Temp;Humidity;BMP_temperature;BMP_pressure;BME280_temperature;BME280_humidity;BME280_pressure;Samples;Min_cycle;Max_cycle;Signal;HPM_P1;HPM_P2
2024/01/21 00:01:24;;;;;;;12.68;7.63;;;;;;;;;;5031100;28;20140;-68
2024/01/21 00:03:50;;;;;;;10.98;5.75;;;;;;;;;;5014750;28;20275;-70
2024/01/21 00:06:16;;;;;;;11.48;6.80;;;;;;;;;;5030303;28;20132;-69
2024/01/21 00:08:43;;;;;;;13.20;6.55;;;;;;;;;;5031233;28;20048;-69
2024/01/21 00:11:09;;;;;;;11.48;6.32;;;;;;;;;;5031060;28;20037;-69
2024/01/21 00:13:35;;;;;;;12.05;6.57;;;;;;;;;;5031091;28;20405;-68
2024/01/21 00:16:00;;;;;;;11.85;7.57;;;;;;;;;;5030622;28;20132;-68
2024/01/21 00:18:26;;;;;;;13.13;7.30;;;;;;;;;;5030803;28;20041;-68
2024/01/21 00:20:52;;;;;;;12.23;6.53;;;;;;;;;;5030739;28;20045;-70
2024/01/21 00:23:18;;;;;;;13.45;6.95;;;26.30;1.00;;;;;;5030992;28;20194;-68
2024/01/21 00:25:44;;;;;;;13.23;7.60;;;;;;;;;;5030146;28;20038;-68
2024/01/21 00:28:10;;;;;;;13.23;7.18;;;26.30;1.00;;;;;;5030552;28;20060;-69
2024/01/21 00:30:36;;;;;;;14.27;7.85;;;;;;;;;;5030909;28;20041;-70
2024/01/21 00:33:02;;;;;;;10.75;7.10;;;;;;;;;;5014602;28;20037;-68
2024/01/21 00:35:28;;;;;;;13.27;7.80;;;;;;;;;;5030138;28;20527;-69
2024/01/21 00:37:54;;;;;;;13.40;7.35;;;;;;;;;;5013944;28;20057;-69
2024/01/21 00:40:20;;;;;;;13.95;6.85;;;;;;;;;;5030544;28;20133;-68
2024/01/21 00:42:46;;;;;;;13.55;7.88;;;;;;;;;;5030495;28;20131;-68
2024/01/21 00:45:12;;;;;;;13.25;8.68;;;;;;;;;;5030460;28;20095;-68
2024/01/21 00:47:38;;;;;;;12.10;7.30;;;;;;;;;;5029672;28;20045;-68
2024/01/21 00:50:04;;;;;;;15.02;7.82;;;;;;;;;;5030873;28;20140;-68
2024/01/21 00:52:29;;;;;;;15.98;8.07;;;26.60;1.00;;;;;;5030478;28;20490;-68
2024/01/21 00:54:55;;;;;;;13.88;8.73;;;26.50;1.00;;;;;;5014311;28;20044;-68
2024/01/21 00:57:21;;;;;;;13.00;6.35;;;26.50;1.00;;;;;;5029682;28;20041;-69
2024/01/21 00:59:47;;;;;;;14.55;7.90;;;;;;;;;;5030345;28;20098;-68
2024/01/21 01:02:13;;;;;;;14.73;7.15;;;;;;;;;;5031571;28;20037;-68
2024/01/21 01:04:39;;;;;;;12.23;7.07;;;26.60;1.00;;;;;;5030454;28;20042;-68
2024/01/21 01:07:05;;;;;;;10.02;6.65;;;;;;;;;;5029906;28;20048;-68
2024/01/21 01:09:31;;;;;;;13.85;6.70;;;;;;;;;;5018247;28;20045;-68
2024/01/21 01:11:57;;;;;;;11.30;6.80;;;26.70;1.00;;;;;;5017833;28;20408;-68
2024/01/21 01:14:23;;;;;;;12.65;7.28;;;;;;;;;;5034374;28;20034;-68
2024/01/21 01:16:49;;;;;;;10.20;7.15;;;;;;;;;;5033741;28;20312;-68
2024/01/21 01:19:15;;;;;;;11.23;5.72;;;;;;;;;;5034095;28;20048;-69
2024/01/21 01:21:41;;;;;;;11.35;6.63;;;26.60;1.00;;;;;;5034358;28;20068;-68
2024/01/21 01:24:06;;;;;;;11.38;6.18;;;26.80;1.00;;;;;;5035481;28;20497;-69
2024/01/21 01:26:32;;;;;;;11.10;6.70;;;;;;;;;;5033380;28;20503;-69
2024/01/21 01:28:58;;;;;;;12.55;7.43;;;26.90;1.00;;;;;;5034157;28;20038;-70
2024/01/21 01:31:24;;;;;;;7.95;5.68;;;;;;;;;;5033842;28;20072;-69
2024/01/21 01:33:50;;;;;;;11.70;6.13;;;;;;;;;;5033948;28;20120;-71
2024/01/21 01:36:16;;;;;;;8.55;5.07;;;;;;;;;;5033634;28;20045;-71
2024/01/21 01:38:42;;;;;;;10.63;6.00;;;;;;;;;;5034018;28;20404;-68
2024/01/21 01:41:08;;;;;;;11.68;5.88;;;;;;;;;;5033920;28;20043;-68
2024/01/21 01:43:34;;;;;;;10.52;6.40;;;;;;;;;;5017213;28;20523;-68
2024/01/21 01:46:00;;;;;;;9.73;5.10;;;;;;;;;;5033109;28;20095;-68
2024/01/21 01:48:30;;;;;;;9.30;5.60;;;26.90;1.00;;;;;;5033490;28;20033;-69
2024/01/21 01:50:57;;;;;;;7.90;5.60;;;;;;;;;;5033690;28;20038;-68
2024/01/21 01:53:23;;;;;;;8.20;5.13;;;;;;;;;;5033552;28;20040;-68
2024/01/21 01:55:49;;;;;;;8.43;5.43;;;;;;;;;;5032958;28;20092;-69
2024/01/21 01:58:18;;;;;;;10.55;5.75;;;27.00;1.00;;;;;;5033404;28;20091;-69
2024/01/21 02:00:44;;;;;;;11.10;5.60;;;26.60;1.00;;;;;;5033768;28;20424;-68
2024/01/21 02:03:10;;;;;;;9.45;5.55;;;;;;;;;;5033273;28;20055;-69
2024/01/21 02:05:36;;;;;;;8.27;5.57;;;;;;;;;;5032708;28;20133;-68
2024/01/21 02:08:02;;;;;;;10.75;5.13;;;;;;;;;;5033219;28;20116;-68
2024/01/21 02:10:31;;;;;;;10.65;5.60;;;;;;;;;;5034550;28;20048;-69
2024/01/21 02:12:56;;;;;;;9.20;5.32;;;26.90;1.00;;;;;;5033181;28;20033;-68
2024/01/21 02:15:22;;;;;;;7.68;5.40;;;;;;;;;;5032602;28;20033;-70
2024/01/21 02:17:48;;;;;;;9.95;5.45;;;26.90;1.00;;;;;;5033013;28;20107;-68
2024/01/21 02:20:14;;;;;;;9.05;5.47;;;;;;;;;;5033078;28;20048;-68
2024/01/21 02:22:41;;;;;;;10.70;5.38;;;;;;;;;;5033090;28;20044;-70
2024/01/21 02:25:10;;;;;;;11.27;5.78;;;;;;;;;;5033051;28;20057;-69
2024/01/21 02:27:38;;;;;;;7.43;4.88;;;26.70;1.00;;;;;;5032417;28;20077;-68
2024/01/21 02:30:04;;;;;;;11.00;5.63;;;26.90;1.00;;;;;;5032860;28;20042;-68
2024/01/21 02:32:30;;;;;;;9.48;6.13;;;;;;;;;;5032700;28;20116;-68
2024/01/21 02:34:56;;;;;;;8.32;5.30;;;27.00;1.00;;;;;;5016404;28;20037;-68
2024/01/21 02:37:22;;;;;;;9.00;5.85;;;;;;;;;;5032156;28;20041;-68
2024/01/21 02:39:48;;;;;;;8.40;5.47;;;;;;;;;;5032746;28;20128;-68
2024/01/21 02:42:14;;;;;;;9.77;6.00;;;;;;;;;;5032916;28;20041;-68
2024/01/21 02:44:40;;;;;;;8.60;5.35;;;;;;;;;;5033852;28;20464;-68
2024/01/21 02:47:06;;;;;;;9.77;6.28;;;;;;;;;;5031837;28;20433;-68
2024/01/21 02:49:31;;;;;;;9.40;5.05;;;;;;;;;;5032360;28;20124;-68
2024/01/21 02:51:58;;;;;;;11.88;6.05;;;;;;;;;;5032843;28;20045;-69
2024/01/21 02:54:24;;;;;;;10.95;5.78;;;;;;;;;;5032928;28;20456;-68
2024/01/21 02:56:50;;;;;;;8.80;5.38;;;;;;;;;;5031957;28;20041;-68
2024/01/21 02:59:16;;;;;;;9.05;5.50;;;;;;;;;;5032234;28;20042;-69
2024/01/21 03:01:42;;;;;;;8.55;4.93;;;;;;;;;;5032510;28;20049;-68
2024/01/21 03:04:12;;;;;;;8.65;5.07;;;;;;;;;;5032290;28;20048;-69
2024/01/21 03:06:38;;;;;;;9.70;5.32;;;;;;;;;;5031577;28;20064;-68
2024/01/21 03:09:04;;;;;;;9.35;5.65;;;;;;;;;;5032142;28;20041;-68
2024/01/21 03:11:32;;;;;;;9.63;4.95;;;27.70;1.00;;;;;;5032384;28;20098;-68
2024/01/21 03:13:57;;;;;;;7.00;4.97;;;27.60;1.00;;;;;;5032060;28;20560;-68
2024/01/21 03:16:23;;;;;;;7.97;5.10;;;27.30;1.00;;;;;;5031435;28;20236;-68
2024/01/21 03:18:49;;;;;;;8.90;5.32;;;;;;;;;;5032058;28;20052;-69
2024/01/21 03:21:15;;;;;;;8.02;4.75;;;;;;;;;;5032166;28;20087;-69
2024/01/21 03:23:41;;;;;;;8.18;4.93;;;;;;;;;;5032017;28;20180;-68
2024/01/21 03:26:06;;;;;;;8.45;4.63;;;27.10;1.00;;;;;;5031501;28;20054;-68
2024/01/21 03:28:32;;;;;;;8.88;5.30;;;27.40;1.00;;;;;;5031631;28;20425;-69
2024/01/21 03:30:58;;;;;;;7.25;4.35;;;27.40;1.00;;;;;;5014817;28;20037;-69
2024/01/21 03:33:25;;;;;;;6.00;4.03;;;27.40;1.00;;;;;;5031680;28;20035;-68
2024/01/21 03:35:51;;;;;;;7.45;4.70;;;;;;;;;;5014662;28;20081;-69
2024/01/21 03:38:17;;;;;;;6.53;3.95;;;;;;;;;;5031518;28;20054;-68
2024/01/21 03:40:44;;;;;;;6.57;4.10;;;;;;;;;;5031528;28;20045;-68
2024/01/21 03:43:10;;;;;;;6.15;4.07;;;;;;;;;;5014940;28;20559;-68
2024/01/21 03:45:36;;;;;;;8.48;4.68;;;;;;;;;;5030831;28;20045;-68
2024/01/21 03:48:01;;;;;;;8.40;4.15;;;27.50;1.00;;;;;;5031335;28;20046;-68
2024/01/21 03:50:27;;;;;;;7.68;4.05;;;;;;;;;;5031386;28;20111;-68
2024/01/21 03:52:53;;;;;;;7.28;3.80;;;;;;;;;;5031254;28;20033;-68
2024/01/21 03:55:20;;;;;;;7.03;4.30;;;;;;;;;;5030776;28;20037;-68
2024/01/21 03:57:46;;;;;;;5.90;3.60;;;;;;;;;;5031288;28;20053;-68
2024/01/21 04:00:12;;;;;;;8.20;3.78;;;;;;;;;;5031150;28;20497;-68
2024/01/21 04:02:38;;;;;;;9.60;4.45;;;;;;;;;;5031397;28;20453;-68
2024/01/21 04:05:05;;;;;;;7.93;4.82;;;;;;;;;;5031166;28;20043;-68
2024/01/21 04:07:31;;;;;;;6.43;3.70;;;;;;;;;;5030352;28;20055;-68
2024/01/21 04:09:57;;;;;;;6.38;3.88;;;;;;;;;;5014587;28;20574;-68
2024/01/21 04:12:23;;;;;;;8.85;4.63;;;;;;;;;;5031193;28;20485;-69
2024/01/21 04:14:48;;;;;;;6.65;4.00;;;28.00;1.00;;;;;;5030900;28;20041;-68
2024/01/21 04:17:14;;;;;;;7.13;4.22;;;28.00;1.00;;;;;;5013862;28;20520;-70
2024/01/21 04:19:40;;;;;;;6.28;3.90;;;;;;;;;;5030956;28;20063;-68
2024/01/21 04:22:06;;;;;;;7.22;3.65;;;;;;;;;;5031025;28;20045;-68
2024/01/21 04:24:32;;;;;;;5.55;4.00;;;;;;;;;;5014301;28;20049;-69
2024/01/21 04:26:58;;;;;;;6.28;3.75;;;;;;;;;;5030024;28;20042;-69
2024/01/21 04:29:24;;;;;;;6.60;4.07;;;;;;;;;;5030919;28;20041;-70
2024/01/21 04:31:50;;;;;;;4.78;3.28;;;;;;;;;;5030496;28;20041;-68
2024/01/21 04:34:16;;;;;;;6.43;4.05;;;;;;;;;;5031025;28;20115;-68
2024/01/21 04:36:43;;;;;;;5.22;3.50;;;;;;;;;;5013692;28;20371;-68
2024/01/21 04:39:09;;;;;;;7.40;3.85;;;;;;;;;;5030450;28;20044;-68
2024/01/21 04:41:35;;;;;;;9.52;4.18;;;;;;;;;;5030661;28;20517;-68
2024/01/21 04:44:02;;;;;;;6.80;4.15;;;;;;;;;;5030741;28;20408;-68
2024/01/21 04:46:27;;;;;;;6.30;3.70;;;28.20;1.00;;;;;;5029858;28;20049;-68
2024/01/21 04:48:53;;;;;;;7.15;3.92;;;28.10;1.00;;;;;;5030385;28;20033;-68
2024/01/21 04:51:20;;;;;;;8.88;5.15;;;;;;;;;;5030487;28;20083;-68
2024/01/21 04:53:45;;;;;;;7.10;4.20;;;28.40;1.00;;;;;;5030675;28;20077;-68
2024/01/21 04:56:17;;;;;;;5.68;3.33;;;28.20;1.00;;;;;;5013859;28;20087;-68
2024/01/21 04:58:44;;;;;;;6.97;4.13;;;;;;;;;;5030252;28;20113;-68
2024/01/21 05:01:09;;;;;;;6.57;3.78;;;28.30;1.00;;;;;;5030376;28;20045;-68
2024/01/21 05:03:35;;;;;;;6.93;4.20;;;;;;;;;;5013860;28;20574;-68
2024/01/21 05:06:01;;;;;;;5.97;3.70;;;;;;;;;;5029703;28;20401;-70
2024/01/21 05:08:27;;;;;;;7.47;3.63;;;;;;;;;;5030049;28;20124;-68
2024/01/21 05:10:53;;;;;;;7.82;4.25;;;28.40;1.00;;;;;;5030218;28;20037;-68
2024/01/21 05:13:19;;;;;;;5.68;3.35;;;28.40;1.00;;;;;;5030138;28;20037;-68
2024/01/21 05:15:45;;;;;;;9.18;4.18;;;;;;;;;;5029738;28;20038;-68
2024/01/21 05:18:11;;;;;;;5.88;3.78;;;;;;;;;;5030050;28;20086;-69
2024/01/21 05:20:36;;;;;;;6.45;3.50;;;28.50;1.00;;;;;;5030402;28;20045;-68
2024/01/21 05:23:03;;;;;;;8.80;4.63;;;28.40;1.00;;;;;;5013659;28;20043;-68
2024/01/21 05:25:29;;;;;;;7.25;4.10;;;;;;;;;;5029601;28;20080;-68
2024/01/21 05:27:55;;;;;;;6.20;3.10;;;28.40;1.00;;;;;;5013564;28;20046;-68
2024/01/21 05:30:21;;;;;;;6.00;3.50;;;;;;;;;;5030268;28;20049;-68
2024/01/21 05:32:50;;;;;;;6.25;3.45;;;28.40;1.00;;;;;;5029933;28;20048;-68
2024/01/21 05:35:15;;;;;;;5.57;3.47;;;28.50;1.00;;;;;;5013728;28;20041;-70
2024/01/21 05:37:41;;;;;;;5.70;3.60;;;28.60;1.00;;;;;;5029301;28;20041;-70
2024/01/21 05:40:07;;;;;;;5.10;3.22;;;;;;;;;;5030096;28;20033;-68
2024/01/21 05:42:33;;;;;;;6.82;3.80;;;;;;;;;;5029962;28;20033;-68
2024/01/21 05:44:59;;;;;;;6.55;3.35;;;;;;;;;;5029971;28;20401;-68
2024/01/21 05:47:25;;;;;;;5.97;4.00;;;;;;;;;;5029132;28;20034;-68
2024/01/21 05:49:51;;;;;;;6.35;4.10;;;28.90;1.00;;;;;;5029900;28;20453;-68
2024/01/21 05:52:17;;;;;;;4.90;3.70;;;;;;;;;;5013467;28;20040;-69
2024/01/21 05:54:42;;;;;;;6.07;3.65;;;;;;;;;;5032801;28;20038;-68
2024/01/21 05:57:09;;;;;;;6.05;3.58;;;28.70;1.00;;;;;;5033175;28;20041;-68
2024/01/21 05:59:35;;;;;;;8.43;3.47;;;;;;;;;;5033781;28;20045;-70
2024/01/21 06:02:01;;;;;;;6.53;3.95;;;;;;;;;;5017102;28;20068;-69
2024/01/21 06:04:27;;;;;;;6.32;3.30;;;;;;;;;;5033739;28;20045;-68
2024/01/21 06:06:53;;;;;;;8.20;4.25;;;;;;;;;;5032589;28;20107;-68
2024/01/21 06:09:19;;;;;;;5.65;3.95;;;28.70;1.00;;;;;;5033280;28;20128;-68
2024/01/21 06:11:45;;;;;;;5.35;3.10;;;28.60;1.00;;;;;;5033321;28;20396;-69
2024/01/21 06:14:11;;;;;;;4.57;3.17;;;28.70;1.00;;;;;;5033458;28;20041;-68
2024/01/21 06:16:37;;;;;;;5.38;3.40;;;;;;;;;;5032713;28;20501;-68
2024/01/21 06:19:03;;;;;;;5.85;3.25;;;;;;;;;;5016733;28;20041;-68
2024/01/21 06:21:29;;;;;;;4.93;3.22;;;;;;;;;;5033223;28;20041;-68
2024/01/21 06:23:55;;;;;;;6.68;3.67;;;;;;;;;;5033359;28;20064;-68
2024/01/21 06:26:22;;;;;;;5.45;3.78;;;;;;;;;;5032350;28;20045;-70
2024/01/21 06:28:48;;;;;;;7.80;3.67;;;28.80;1.00;;;;;;5033093;28;20045;-68
2024/01/21 06:31:14;;;;;;;8.85;3.95;;;28.80;1.00;;;;;;5034083;28;20041;-69
2024/01/21 06:33:41;;;;;;;6.07;3.13;;;;;;;;;;5033500;28;20038;-69
2024/01/21 06:36:07;;;;;;;6.82;3.50;;;;;;;;;;5032304;28;20045;-68
2024/01/21 06:38:33;;;;;;;5.03;3.20;;;28.90;1.00;;;;;;5032688;28;20088;-68
2024/01/21 06:40:59;;;;;;;5.50;3.63;;;28.90;1.00;;;;;;5032949;28;20081;-68
2024/01/21 06:43:24;;;;;;;5.28;3.40;;;29.00;1.00;;;;;;5016227;28;20548;-68
2024/01/21 06:45:50;;;;;;;5.28;4.00;;;;;;;;;;5032028;28;20037;-68
2024/01/21 06:48:16;;;;;;;7.32;3.50;;;;;;;;;;5032678;28;20041;-68
2024/01/21 06:50:42;;;;;;;5.72;3.78;;;;;;;;;;5032559;28;20486;-68
2024/01/21 06:53:08;;;;;;;7.35;3.60;;;;;;;;;;5032521;28;20037;-68
2024/01/21 06:55:34;;;;;;;5.47;3.72;;;;;;;;;;5031948;28;20037;-68
2024/01/21 06:58:00;;;;;;;6.03;4.18;;;;;;;;;;5032613;28;20045;-68
2024/01/21 07:00:26;;;;;;;5.70;3.70;;;;;;;;;;5032404;28;20037;-68
2024/01/21 07:02:52;;;;;;;9.45;3.67;;;29.10;1.00;;;;;;5032290;28;20038;-68
2024/01/21 07:05:18;;;;;;;4.65;3.22;;;;;;;;;;5014751;28;20447;-68
2024/01/21 07:07:44;;;;;;;8.38;3.85;;;;;;;;;;5033555;28;20038;-69
2024/01/21 07:10:10;;;;;;;8.57;3.78;;;29.10;1.00;;;;;;5032200;28;20069;-68
2024/01/21 07:12:36;;;;;;;6.15;3.80;;;29.00;1.00;;;;;;5033317;28;20493;-68
2024/01/21 07:15:02;;;;;;;7.65;4.32;;;;;;;;;;5032209;28;20046;-68
2024/01/21 07:17:28;;;;;;;7.35;3.92;;;;;;;;;;5031228;28;20550;-68
2024/01/21 07:19:54;;;;;;;6.35;4.40;;;29.30;1.00;;;;;;5015566;28;20072;-68
2024/01/21 07:22:20;;;;;;;6.90;4.13;;;29.20;1.00;;;;;;5031958;28;20080;-68
2024/01/21 07:24:46;;;;;;;8.93;3.88;;;;;;;;;;5015423;28;20045;-68
2024/01/21 07:27:12;;;;;;;7.20;4.07;;;;;;;;;;5031218;28;20408;-70
2024/01/21 07:29:38;;;;;;;6.15;4.00;;;;;;;;;;5031964;28;20041;-68
2024/01/21 07:32:05;;;;;;;7.82;4.18;;;29.50;1.00;;;;;;5031715;28;20136;-68
2024/01/21 07:34:31;;;;;;;8.50;4.13;;;29.40;1.00;;;;;;5031688;28;20577;-68
2024/01/21 07:36:57;;;;;;;8.05;4.30;;;;;;;;;;5014866;28;20059;-68
2024/01/21 07:39:23;;;;;;;8.57;4.10;;;;;;;;;;5031474;28;20488;-68
2024/01/21 07:41:49;;;;;;;6.78;4.20;;;;;;;;;;5031532;28;20042;-69
2024/01/21 07:44:15;;;;;;;7.90;4.88;;;;;;;;;;5031562;28;20045;-68
2024/01/21 07:46:41;;;;;;;8.20;4.47;;;;;;;;;;5030810;28;20428;-68
2024/01/21 07:49:07;;;;;;;8.25;4.35;;;;;;;;;;5031011;28;20052;-68
2024/01/21 07:51:33;;;;;;;9.85;3.97;;;;;;;;;;5031350;28;20497;-68
2024/01/21 07:53:58;;;;;;;6.80;4.75;;;29.20;1.00;;;;;;5031371;28;20048;-69
2024/01/21 07:56:24;;;;;;;7.75;4.95;;;29.20;1.00;;;;;;5030993;28;20091;-68
2024/01/21 07:58:49;;;;;;;8.70;4.75;;;29.30;1.00;;;;;;5031118;28;20034;-68
2024/01/21 08:01:20;;;;;;;7.32;4.55;;;;;;;;;;5014618;28;20390;-68
2024/01/21 08:03:46;;;;;;;10.05;4.57;;;29.40;1.00;;;;;;5031246;28;20053;-68
2024/01/21 08:06:12;;;;;;;8.20;4.47;;;;;;;;;;5030463;28;20049;-68
2024/01/21 08:08:38;;;;;;;8.15;5.03;;;;;;;;;;5014517;28;20041;-69
2024/01/21 08:11:04;;;;;;;6.47;4.38;;;;;;;;;;5014532;28;20061;-69
2024/01/21 08:13:30;;;;;;;7.78;4.75;;;;;;;;;;5031177;28;20037;-70
2024/01/21 08:15:56;;;;;;;7.75;4.90;;;;;;;;;;5030102;28;20102;-68
2024/01/21 08:18:22;;;;;;;8.60;5.32;;;;;;;;;;5030845;28;20224;-68
2024/01/21 08:20:48;;;;;;;7.13;4.40;;;;;;;;;;5030851;28;20044;-69
2024/01/21 08:23:15;;;;;;;9.65;4.95;;;;;;;;;;5030751;28;20271;-68
2024/01/21 08:25:41;;;;;;;10.07;5.95;;;;;;;;;;5030064;28;20044;-68
2024/01/21 08:28:07;;;;;;;9.60;5.05;;;;;;;;;;5030891;28;20050;-68
2024/01/21 08:30:33;;;;;;;11.70;4.70;;;;;;;;;;5030676;28;20497;-68
2024/01/21 08:32:59;;;;;;;8.45;5.15;;;;;;;;;;5029958;28;20095;-69
2024/01/21 08:35:25;;;;;;;9.50;5.53;;;;;;;;;;5029321;28;20497;-68
2024/01/21 08:37:50;;;;;;;8.85;5.10;;;29.70;1.00;;;;;;5029756;28;20593;-69
2024/01/21 08:40:16;;;;;;;8.13;5.18;;;29.60;1.00;;;;;;5030094;28;20049;-68
2024/01/21 08:42:42;;;;;;;9.13;5.63;;;;;;;;;;5029734;28;20515;-68
2024/01/21 08:45:08;;;;;;;8.10;5.55;;;;;;;;;;5029697;28;20044;-69
2024/01/21 08:47:34;;;;;;;9.32;5.95;;;29.50;1.00;;;;;;5012472;28;20041;-68
2024/01/21 08:50:01;;;;;;;8.43;4.70;;;;;;;;;;5029780;28;20040;-68
2024/01/21 08:52:26;;;;;;;9.65;5.13;;;29.60;1.00;;;;;;5030120;28;20424;-69
2024/01/21 08:54:53;;;;;;;8.60;5.00;;;;;;;;;;5029859;28;20044;-69
2024/01/21 08:57:18;;;;;;;8.98;5.47;;;29.40;1.00;;;;;;5029114;28;20489;-68
2024/01/21 08:59:44;;;;;;;8.25;4.68;;;;;;;;;;5012974;28;20043;-68
2024/01/21 09:02:10;;;;;;;11.40;5.75;;;;;;;;;;5029461;28;20052;-68
2024/01/21 09:04:42;;;;;;;8.88;5.78;;;29.70;1.00;;;;;;5029598;28;20061;-68
2024/01/21 09:07:08;;;;;;;8.95;5.60;;;;;;;;;;5028553;28;20041;-68
2024/01/21 09:09:35;;;;;;;9.05;6.13;;;;;;;;;;5029718;28;20029;-70
2024/01/21 09:12:01;;;;;;;8.02;4.95;;;;;;;;;;5029300;28;20049;-70
2024/01/21 09:14:27;;;;;;;9.50;5.40;;;;;;;;;;5029299;28;20038;-68
2024/01/21 09:16:53;;;;;;;9.45;5.72;;;;;;;;;;5028700;28;20080;-69
2024/01/21 09:19:19;;;;;;;8.27;4.90;;;;;;;;;;5030701;28;20037;-68
2024/01/21 09:21:45;;;;;;;10.10;5.53;;;;;;;;;;5029183;28;20509;-69
2024/01/21 09:24:14;;;;;;;7.50;5.22;;;;;;;;;;5013092;28;20456;-68
2024/01/21 09:26:40;;;;;;;6.43;4.70;;;29.80;1.00;;;;;;5028494;28;20120;-70
2024/01/21 09:29:06;;;;;;;9.32;5.10;;;;;;;;;;5014450;28;20141;-69
2024/01/21 09:31:32;;;;;;;7.35;5.05;;;;;;;;;;4996602;28;1049376;-68
2024/01/21 09:33:58;;;;;;;9.90;5.65;;;;;;;;;;5034124;28;20135;-69
2024/01/21 09:36:24;;;;;;;9.23;5.60;;;;;;;;;;5033636;28;20085;-68
2024/01/21 09:38:53;;;;;;;11.05;5.57;;;;;;;;;;5017235;28;20048;-68
2024/01/21 09:41:38;;;;;;;8.13;4.65;;;;;;;;;;5033927;28;20452;-70
2024/01/21 09:44:04;;;;;;;10.13;5.13;;;;;;;;;;5033830;28;20041;-68
2024/01/21 09:46:30;;;;;;;8.35;5.97;;;;;;;;;;5016650;28;20041;-68
2024/01/21 09:48:59;;;;;;;9.48;5.82;;;30.40;1.00;;;;;;5017189;28;20045;-68
2024/01/21 09:51:25;;;;;;;8.68;5.38;;;30.10;1.00;;;;;;5033554;28;20055;-69
2024/01/21 09:53:51;;;;;;;8.50;5.22;;;30.00;1.00;;;;;;5033516;28;20038;-70
2024/01/21 09:56:17;;;;;;;9.23;5.35;;;30.00;1.00;;;;;;5016504;28;20041;-68
2024/01/21 09:58:49;;;;;;;8.90;5.85;;;30.00;1.00;;;;;;5033723;28;20041;-68
2024/01/21 10:01:15;;;;;;;8.82;5.07;;;;;;;;;;5016896;28;20529;-68
2024/01/21 10:03:41;;;;;;;8.23;4.97;;;;;;;;;;5033676;28;20091;-69
2024/01/21 10:06:07;;;;;;;6.63;4.88;;;30.20;1.00;;;;;;5032759;28;20460;-68
2024/01/21 10:08:37;;;;;;;9.55;5.97;;;30.20;1.00;;;;;;5033416;28;20040;-69
2024/01/21 10:11:03;;;;;;;8.93;5.70;;;30.50;1.00;;;;;;5033362;28;20037;-68
2024/01/21 10:13:30;;;;;;;8.45;5.40;;;30.30;1.00;;;;;;5033239;28;20068;-69
2024/01/21 10:15:59;;;;;;;8.30;5.45;;;30.50;1.00;;;;;;5032965;28;20041;-69
2024/01/21 10:18:27;;;;;;;10.40;6.22;;;;;;;;;;5033080;28;20042;-69
2024/01/21 10:20:53;;;;;;;10.55;5.63;;;;;;;;;;5016686;28;20106;-70
2024/01/21 10:23:19;;;;;;;11.43;5.40;;;;;;;;;;5033051;28;20493;-69
2024/01/21 10:25:47;;;;;;;10.73;6.80;;;30.40;1.00;;;;;;5032360;28;20042;-69
2024/01/21 10:28:14;;;;;;;10.38;6.18;;;30.20;1.00;;;;;;5032938;28;20046;-70
2024/01/21 10:30:42;;;;;;;9.85;6.28;;;30.40;1.00;;;;;;5033038;28;20099;-69
2024/01/21 10:33:08;;;;;;;12.80;6.57;;;;;;;;;;5016906;28;20033;-69
2024/01/21 10:35:34;;;;;;;11.65;6.88;;;;;;;;;;5032220;28;20042;-69
2024/01/21 10:38:05;;;;;;;10.88;6.82;;;;;;;;;;5032665;28;20041;-69
2024/01/21 10:40:31;;;;;;;14.95;7.07;;;30.40;1.00;;;;;;5032919;28;20460;-69
2024/01/21 10:42:59;;;;;;;12.82;7.28;;;30.60;1.00;;;;;;5032700;28;20539;-71
2024/01/21 10:45:26;;;;;;;13.52;7.00;;;;;;;;;;5032198;28;20045;-70
2024/01/21 10:47:53;;;;;;;9.98;5.65;;;;;;;;;;5032432;28;20103;-69
2024/01/21 10:50:22;;;;;;;19.27;7.03;;;30.50;1.00;;;;;;5032840;28;20048;-69
2024/01/21 10:52:49;;;;;;;9.95;6.95;;;30.60;1.00;;;;;;5032532;28;20044;-69
2024/01/21 10:55:15;;;;;;;12.25;7.18;;;;;;;;;;5032475;28;20041;-69
2024/01/21 10:57:42;;;;;;;15.35;6.82;;;;;;;;;;5032021;28;20095;-69
2024/01/21 11:00:09;;;;;;;11.75;6.68;;;;;;;;;;5032669;28;20064;-69
2024/01/21 11:02:35;;;;;;;11.27;6.15;;;;;;;;;;5032553;28;20045;-69
2024/01/21 11:05:01;;;;;;;11.18;6.63;;;;;;;;;;5032542;28;20475;-69
2024/01/21 11:07:28;;;;;;;12.38;6.75;;;;;;;;;;5031553;28;20075;-69
2024/01/21 11:09:54;;;;;;;13.40;7.03;;;30.70;1.00;;;;;;5032508;28;20033;-69
2024/01/21 11:12:22;;;;;;;13.35;6.75;;;;;;;;;;5032265;28;20048;-69
2024/01/21 11:14:48;;;;;;;12.55;6.95;;;;;;;;;;5032231;28;20034;-70
2024/01/21 11:17:18;;;;;;;11.45;6.60;;;30.70;1.00;;;;;;5031440;28;20561;-69
2024/01/21 11:19:45;;;;;;;14.55;7.30;;;;;;;;;;5032390;28;20452;-69
2024/01/21 11:22:11;;;;;;;10.50;6.47;;;;;;;;;;5032094;28;20045;-69
2024/01/21 11:24:37;;;;;;;9.07;6.78;;;;;;;;;;5015625;28;20472;-69
2024/01/21 11:27:03;;;;;;;11.38;6.65;;;30.90;1.00;;;;;;5031245;28;20050;-69
2024/01/21 11:29:30;;;;;;;12.10;6.47;;;;;;;;;;5031956;28;20052;-69
2024/01/21 11:31:58;;;;;;;10.40;7.30;;;;;;;;;;5032079;28;20120;-69
2024/01/21 11:34:24;;;;;;;10.93;6.68;;;30.70;1.00;;;;;;5031927;28;20052;-69
2024/01/21 11:36:51;;;;;;;12.77;7.25;;;30.80;1.00;;;;;;5031542;28;20120;-69
2024/01/21 11:39:19;;;;;;;14.40;6.65;;;30.60;1.00;;;;;;5031845;28;20068;-69
2024/01/21 11:41:46;;;;;;;9.50;6.13;;;;;;;;;;5015120;28;20061;-69
2024/01/21 11:44:18;;;;;;;10.57;6.75;;;30.70;1.00;;;;;;5031564;28;20447;-69
2024/01/21 11:46:44;;;;;;;11.68;6.80;;;31.00;1.00;;;;;;5030858;28;20045;-69
2024/01/21 11:49:10;;;;;;;10.52;7.15;;;;;;;;;;5031591;28;20036;-69
2024/01/21 11:51:37;;;;;;;11.70;7.47;;;30.90;1.00;;;;;;5031034;28;20128;-69
2024/01/21 11:54:03;;;;;;;12.23;7.05;;;30.60;1.00;;;;;;5031484;28;20037;-69
2024/01/21 11:56:29;;;;;;;12.02;6.75;;;30.80;1.00;;;;;;5030762;28;20049;-69
2024/01/21 11:58:57;;;;;;;12.38;7.20;;;;;;;;;;5031376;28;20063;-69
2024/01/21 12:01:25;;;;;;;9.35;6.30;;;;;;;;;;5031226;28;20575;-69
2024/01/21 12:03:50;;;;;;;12.07;7.53;;;30.90;1.00;;;;;;5031186;28;20048;-69
2024/01/21 12:06:18;;;;;;;9.80;7.05;;;31.10;1.00;;;;;;5030529;28;20042;-69
2024/01/21 12:08:45;;;;;;;15.02;7.68;;;;;;;;;;5031131;28;20029;-69
2024/01/21 12:11:11;;;;;;;12.38;7.68;;;;;;;;;;5014685;28;20563;-69
2024/01/21 12:13:39;;;;;;;11.15;7.03;;;;;;;;;;5031004;28;20084;-69
2024/01/21 12:16:07;;;;;;;10.90;6.97;;;;;;;;;;5030419;28;20052;-70
2024/01/21 12:18:37;;;;;;;13.70;6.85;;;30.90;1.00;;;;;;5030796;28;20041;-70
2024/01/21 12:21:03;;;;;;;15.88;8.15;;;;;;;;;;5031192;28;20121;-69
2024/01/21 12:23:29;;;;;;;12.50;7.88;;;;;;;;;;5030895;28;20037;-69
2024/01/21 12:25:55;;;;;;;14.25;8.35;;;;;;;;;;5030667;28;20092;-68
2024/01/21 12:28:21;;;;;;;14.00;8.68;;;;;;;;;;5030936;28;20045;-68
2024/01/21 12:30:47;;;;;;;14.93;8.48;;;;;;;;;;5030789;28;20033;-68
2024/01/21 12:33:14;;;;;;;13.85;7.72;;;;;;;;;;5031054;28;20045;-70
2024/01/21 12:35:40;;;;;;;14.70;8.68;;;;;;;;;;5013658;28;20060;-71
2024/01/21 12:38:06;;;;;;;16.90;8.48;;;;;;;;;;5030782;28;20497;-71
2024/01/21 12:40:32;;;;;;;14.15;8.50;;;;;;;;;;5030511;28;20048;-70
2024/01/21 12:42:58;;;;;;;14.18;8.02;;;;;;;;;;5030577;28;20464;-70
2024/01/21 12:45:25;;;;;;;17.67;9.23;;;;;;;;;;5030402;28;20098;-70
2024/01/21 12:47:51;;;;;;;11.60;8.52;;;31.20;1.00;;;;;;5013732;28;20041;-71
2024/01/21 12:50:17;;;;;;;15.77;8.27;;;30.90;1.00;;;;;;5030404;28;20049;-71
2024/01/21 12:52:43;;;;;;;13.82;8.48;;;31.00;1.00;;;;;;5030678;28;20045;-71
2024/01/21 12:55:10;;;;;;;17.38;8.70;;;31.00;1.00;;;;;;5030598;28;20030;-71
2024/01/21 12:57:36;;;;;;;15.15;8.90;;;30.90;1.00;;;;;;5029940;28;20037;-71
2024/01/21 13:00:03;;;;;;;14.07;8.57;;;30.80;1.00;;;;;;5013904;28;20037;-71
2024/01/21 13:02:29;;;;;;;18.05;8.90;;;;;;;;;;5029689;28;20124;-71
2024/01/21 13:04:55;;;;;;;15.88;8.57;;;;;;;;;;5029952;28;20133;-71
2024/01/21 13:07:22;;;;;;;17.10;8.63;;;;;;;;;;5013162;28;20085;-71
2024/01/21 13:09:47;;;;;;;18.52;8.38;;;30.90;1.00;;;;;;5030200;28;20041;-71
2024/01/21 13:12:14;;;;;;;18.70;10.00;;;;;;;;;;5030491;28;20125;-71
2024/01/21 13:14:40;;;;;;;16.75;8.57;;;;;;;;;;5014115;28;20099;-71
2024/01/21 13:17:06;;;;;;;14.52;8.85;;;;;;;;;;5029706;28;20049;-71
2024/01/21 13:19:32;;;;;;;18.05;9.35;;;;;;;;;;5030329;28;20053;-71
2024/01/21 13:22:06;;;;;;;18.13;9.65;;;;;;;;;;5030226;28;20247;-71
2024/01/21 13:24:32;;;;;;;17.58;9.55;;;;;;;;;;5030174;28;20060;-71
2024/01/21 13:27:07;;;;;;;19.63;9.57;;;;;;;;;;5029421;28;20045;-72
2024/01/21 13:32:17;;;;;;;18.52;9.75;;;;;;;;;;5029998;28;20061;-71
2024/01/21 13:34:43;;;;;;;25.27;9.90;;;31.10;1.00;;;;;;5029980;28;20497;-71
2024/01/21 13:37:12;;;;;;;15.35;9.43;;;30.90;1.00;;;;;;5013175;28;20128;-72
2024/01/21 13:39:38;;;;;;;23.73;10.40;;;;;;;;;;5030146;28;20041;-71
2024/01/21 13:42:04;;;;;;;16.42;8.10;;;31.20;1.00;;;;;;5029859;28;20053;-71
2024/01/21 13:44:31;;;;;;;13.88;8.63;;;;;;;;;;5013522;28;20042;-72
2024/01/21 13:46:57;;;;;;;20.00;9.98;;;;;;;;;;5029443;28;20041;-71
2024/01/21 13:49:23;;;;;;;16.70;10.07;;;;;;;;;;5013231;28;20035;-72
2024/01/21 13:51:50;;;;;;;18.17;9.70;;;30.80;1.00;;;;;;5029762;28;20048;-72
2024/01/21 13:54:16;;;;;;;14.88;8.18;;;30.90;1.00;;;;;;5029888;28;20053;-72
2024/01/21 13:56:42;;;;;;;15.20;9.32;;;;;;;;;;5029475;28;20042;-72